createdAt,value
2022-09-16T00:00:53.533Z,3.53
2022-09-16T00:03:40.476Z,3.33
2022-09-16T00:06:29.146Z,4.20
2022-09-16T00:09:16.112Z,4.20
2022-09-16T00:12:03.197Z,4.30
2022-09-16T00:14:53.442Z,3.77
2022-09-16T00:17:40.342Z,4.20
2022-09-16T00:20:27.533Z,4.30
2022-09-16T00:23:14.425Z,7.70
2022-09-16T00:26:01.340Z,6.57
2022-09-16T00:28:49.779Z,6.00
2022-09-16T00:31:39.037Z,4.97
2022-09-16T00:34:27.255Z,4.60
2022-09-16T00:37:14.181Z,3.50
2022-09-16T00:40:01.028Z,3.37
2022-09-16T00:42:48.188Z,4.30
2022-09-16T00:45:35.506Z,3.83
2022-09-16T00:48:25.966Z,2.97
2022-09-16T00:51:17.048Z,3.37
2022-09-16T00:54:09.711Z,3.23
2022-09-16T00:56:59.231Z,3.30
2022-09-16T00:59:51.326Z,3.13
2022-09-16T01:02:38.105Z,3.07
2022-09-16T01:05:27.332Z,3.43
2022-09-16T01:08:15.267Z,3.03
2022-09-16T01:11:02.250Z,3.10
2022-09-16T01:13:50.388Z,3.50
2022-09-16T01:16:42.973Z,3.43
2022-09-16T01:19:55.766Z,3.30
2022-09-16T01:23:03.085Z,3.00
2022-09-16T01:26:08.013Z,3.10
2022-09-16T01:29:26.862Z,3.23
2022-09-16T01:32:19.650Z,3.30
2022-09-16T01:35:12.731Z,3.33
2022-09-16T01:38:10.918Z,3.80
2022-09-16T01:41:09.070Z,3.40
2022-09-16T01:44:02.312Z,3.10
2022-09-16T01:46:52.329Z,3.03
2022-09-16T01:49:47.663Z,3.40
2022-09-16T01:52:43.725Z,4.20
2022-09-16T01:55:33.936Z,3.27
2022-09-16T01:58:26.766Z,3.40
2022-09-16T02:01:20.088Z,3.30
2022-09-16T02:04:13.835Z,2.93
2022-09-16T02:07:05.121Z,3.33
2022-09-16T02:09:57.701Z,4.23
2022-09-16T02:12:48.012Z,3.50
2022-09-16T02:15:35.533Z,3.70
2022-09-16T02:18:27.905Z,3.10
2022-09-16T02:21:17.702Z,3.30
2022-09-16T02:24:09.847Z,3.73
2022-09-16T02:27:00.812Z,3.37
2022-09-16T02:29:51.771Z,4.10
2022-09-16T02:32:43.346Z,3.27
2022-09-16T02:35:31.572Z,3.83
2022-09-16T02:38:24.565Z,3.50
2022-09-16T02:41:14.962Z,3.63
2022-09-16T02:44:02.428Z,3.97
2022-09-16T02:47:01.378Z,3.67
2022-09-16T02:49:55.601Z,3.40
2022-09-16T02:52:50.862Z,3.30
2022-09-16T02:55:47.489Z,3.40
2022-09-16T02:58:35.744Z,3.67
2022-09-16T03:01:24.492Z,3.20
2022-09-16T03:04:12.560Z,3.43
2022-09-16T03:06:59.621Z,3.70
2022-09-16T03:09:49.379Z,3.73
2022-09-16T03:13:02.967Z,3.20
2022-09-16T03:16:06.771Z,3.60
2022-09-16T03:19:03.862Z,3.50
2022-09-16T03:21:58.747Z,3.80
2022-09-16T03:24:54.271Z,3.33
2022-09-16T03:27:46.361Z,3.03
2022-09-16T03:30:36.992Z,3.10
2022-09-16T03:33:30.819Z,3.50
2022-09-16T03:36:24.916Z,3.13
2022-09-16T03:39:13.235Z,3.53
2022-09-16T03:42:02.483Z,3.37
2022-09-16T03:44:49.703Z,2.97
2022-09-16T03:47:36.357Z,3.87
2022-09-16T03:50:24.573Z,3.70
2022-09-16T03:53:11.255Z,3.10
2022-09-16T03:55:58.154Z,3.20
2022-09-16T03:58:44.972Z,3.70
2022-09-16T04:01:32.099Z,3.40
2022-09-16T04:04:18.757Z,3.63
2022-09-16T04:07:06.816Z,3.43
2022-09-16T04:09:53.912Z,3.20
2022-09-16T04:12:40.961Z,3.60
2022-09-16T04:15:27.768Z,3.40
2022-09-16T04:18:14.494Z,3.83
2022-09-16T04:21:02.767Z,3.57
2022-09-16T04:23:51.149Z,4.03
2022-09-16T04:26:37.915Z,3.37
2022-09-16T04:29:24.865Z,3.80
2022-09-16T04:32:11.594Z,3.50
2022-09-16T04:34:58.154Z,3.50
2022-09-16T04:37:45.046Z,3.50
2022-09-16T04:40:33.203Z,3.10
2022-09-16T04:43:20.330Z,4.13
2022-09-16T04:46:07.892Z,3.73
2022-09-16T04:48:57.028Z,3.57
2022-09-16T04:51:43.686Z,3.67
2022-09-16T04:54:30.461Z,3.50
2022-09-16T04:57:19.113Z,3.67
2022-09-16T05:00:06.876Z,3.33
2022-09-16T05:02:54.827Z,3.47
2022-09-16T05:05:41.930Z,3.40
2022-09-16T05:08:28.551Z,3.50
2022-09-16T05:11:17.929Z,3.47
2022-09-16T05:14:08.551Z,4.03
2022-09-16T05:16:55.265Z,4.00
2022-09-16T05:19:42.761Z,3.90
2022-09-16T05:22:29.894Z,3.47
2022-09-16T05:25:16.883Z,4.07
2022-09-16T05:28:03.753Z,3.93
2022-09-16T05:30:52.210Z,4.13
2022-09-16T05:33:39.694Z,3.93
2022-09-16T05:36:27.741Z,3.50
2022-09-16T05:39:23.133Z,4.20
2022-09-16T05:42:11.264Z,3.93
2022-09-16T05:44:57.884Z,4.27
2022-09-16T05:47:50.318Z,4.20
2022-09-16T05:50:37.087Z,3.73
2022-09-16T05:53:24.710Z,3.20
2022-09-16T05:56:14.155Z,4.30
2022-09-16T05:59:01.697Z,3.97
2022-09-16T06:01:48.383Z,3.63
2022-09-16T06:04:37.003Z,4.10
2022-09-16T06:07:23.970Z,3.50
2022-09-16T06:10:11.011Z,4.03
2022-09-16T06:12:57.500Z,3.57
2022-09-16T06:15:51.112Z,3.50
2022-09-16T06:18:38.603Z,3.37
2022-09-16T06:21:27.025Z,3.60
2022-09-16T06:24:15.076Z,3.80
2022-09-16T06:27:01.662Z,3.50
2022-09-16T06:29:48.331Z,3.90
2022-09-16T06:32:35.007Z,3.60
2022-09-16T06:35:21.801Z,3.77
2022-09-16T06:38:09.877Z,4.03
2022-09-16T06:41:00.200Z,4.17
2022-09-16T06:43:47.776Z,4.27
2022-09-16T06:46:34.792Z,3.60
2022-09-16T06:49:21.447Z,4.13
2022-09-16T06:52:09.564Z,3.83
2022-09-16T06:54:58.065Z,4.33
2022-09-16T06:57:45.057Z,3.63
2022-09-16T07:00:31.703Z,3.70
2022-09-16T07:03:18.605Z,3.87
2022-09-16T07:06:05.611Z,3.70
2022-09-16T07:08:56.133Z,3.80
2022-09-16T07:11:44.871Z,3.37
2022-09-16T07:14:32.664Z,3.43
2022-09-16T07:17:19.866Z,3.80
2022-09-16T07:20:09.133Z,3.60
2022-09-16T07:22:55.947Z,3.47
2022-09-16T07:25:42.950Z,3.67
2022-09-16T07:28:31.406Z,4.00
2022-09-16T07:31:20.724Z,3.20
2022-09-16T07:34:09.191Z,3.80
2022-09-16T07:36:56.965Z,4.10
2022-09-16T07:39:43.720Z,3.50
2022-09-16T07:42:30.860Z,3.23
2022-09-16T07:45:18.906Z,3.23
2022-09-16T07:48:06.282Z,3.67
2022-09-16T07:50:57.917Z,3.40
2022-09-16T07:53:45.540Z,3.10
2022-09-16T07:56:35.432Z,2.83
2022-09-16T07:59:22.151Z,2.70
2022-09-16T08:02:11.008Z,2.70
2022-09-16T08:04:58.177Z,3.00
2022-09-16T08:07:44.738Z,2.80
2022-09-16T08:10:32.551Z,2.43
2022-09-16T08:13:19.758Z,2.80
2022-09-16T08:16:08.772Z,2.97
2022-09-16T08:18:59.276Z,2.63
2022-09-16T08:21:46.332Z,2.50
2022-09-16T08:24:33.469Z,3.00
2022-09-16T08:27:20.060Z,3.23
2022-09-16T08:30:07.664Z,3.20
2022-09-16T08:32:57.695Z,2.53
2022-09-16T08:35:45.990Z,2.13
2022-09-16T08:38:33.918Z,1.90
2022-09-16T08:41:42.867Z,1.73
2022-09-16T08:44:39.995Z,1.83
2022-09-16T08:47:38.927Z,1.10
2022-09-16T08:50:29.596Z,1.17
2022-09-16T08:53:23.555Z,1.23
2022-09-16T08:56:15.700Z,1.20
2022-09-16T08:59:04.793Z,1.47
2022-09-16T09:01:59.497Z,1.20
2022-09-16T09:04:47.519Z,1.37
2022-09-16T09:07:54.824Z,1.00
2022-09-16T09:10:51.018Z,1.57
2022-09-16T09:13:57.151Z,1.50
2022-09-16T09:16:50.161Z,1.77
2022-09-16T09:19:48.562Z,1.57
2022-09-16T09:22:55.714Z,1.80
2022-09-16T09:25:52.150Z,1.40
2022-09-16T09:29:01.489Z,1.40
2022-09-16T09:31:57.238Z,1.80
2022-09-16T09:34:58.042Z,1.73
2022-09-16T09:38:16.100Z,2.30
2022-09-16T09:41:09.884Z,2.20
2022-09-16T09:44:02.990Z,2.37
2022-09-16T09:46:56.246Z,2.10
2022-09-16T09:49:48.149Z,2.00
2022-09-16T09:52:40.900Z,2.10
2022-09-16T09:55:33.017Z,2.03
2022-09-16T09:58:29.765Z,2.07
2022-09-16T10:01:17.302Z,2.47
2022-09-16T10:04:09.733Z,2.50
2022-09-16T10:06:57.540Z,2.60
2022-09-16T10:09:49.709Z,2.70
2022-09-16T10:12:37.697Z,2.77
2022-09-16T10:15:29.753Z,2.20
2022-09-16T10:18:26.230Z,2.97
2022-09-16T10:21:16.616Z,2.73
2022-09-16T10:24:04.013Z,2.50
2022-09-16T10:26:50.410Z,2.77
2022-09-16T10:29:37.438Z,2.57
2022-09-16T10:32:25.800Z,2.73
2022-09-16T10:35:22.251Z,2.93
2022-09-16T10:38:23.705Z,2.87
2022-09-16T10:41:17.078Z,3.00
2022-09-16T10:44:08.602Z,3.07
2022-09-16T10:46:58.509Z,3.77
2022-09-16T10:49:49.959Z,3.33
2022-09-16T10:52:44.801Z,2.80
2022-09-16T10:55:35.497Z,3.00
2022-09-16T10:58:22.355Z,3.40
2022-09-16T11:01:27.542Z,3.47
2022-09-16T11:04:43.971Z,3.13
2022-09-16T11:07:42.906Z,3.10
2022-09-16T11:10:39.182Z,2.90
2022-09-16T11:13:37.524Z,2.87
2022-09-16T11:16:40.786Z,3.00
2022-09-16T11:19:36.564Z,3.03
2022-09-16T11:22:31.024Z,3.73
2022-09-16T11:25:40.286Z,3.10
2022-09-16T11:28:58.349Z,3.60
2022-09-16T11:31:56.707Z,3.27
2022-09-16T11:35:02.158Z,4.00
2022-09-16T11:37:56.784Z,3.03
2022-09-16T11:40:48.802Z,3.57
2022-09-16T11:43:54.874Z,3.37
2022-09-16T11:46:52.847Z,3.47
2022-09-16T11:49:56.362Z,4.57
2022-09-16T11:53:30.113Z,3.70
2022-09-16T11:56:29.008Z,3.67
2022-09-16T11:59:22.580Z,3.70
2022-09-16T12:02:18.368Z,4.00
2022-09-16T12:05:17.285Z,4.70
2022-09-16T12:08:12.985Z,3.80
2022-09-16T12:11:04.573Z,3.87
2022-09-16T12:14:05.687Z,4.30
2022-09-16T12:16:57.483Z,4.87
2022-09-16T12:19:49.069Z,4.97
2022-09-16T12:22:47.284Z,4.23
2022-09-16T12:25:45.495Z,4.10
2022-09-16T12:28:38.998Z,4.63
2022-09-16T12:31:33.988Z,4.93
2022-09-16T12:34:24.341Z,4.60
2022-09-16T12:37:26.053Z,4.17
2022-09-16T12:40:17.919Z,4.60
2022-09-16T12:43:36.209Z,4.20
2022-09-16T12:46:50.571Z,4.40
2022-09-16T12:50:13.967Z,4.00
2022-09-16T12:53:46.686Z,4.37
2022-09-16T12:57:05.494Z,4.20
2022-09-16T13:00:17.378Z,3.70
2022-09-16T13:03:14.082Z,3.80
2022-09-16T13:06:06.503Z,3.70
2022-09-16T13:08:54.466Z,3.40
2022-09-16T13:14:52.922Z,4.50
2022-09-16T13:17:41.485Z,3.80
2022-09-16T13:20:34.248Z,3.30
2022-09-16T13:23:24.678Z,3.83
2022-09-16T13:26:11.911Z,3.87
2022-09-16T13:28:59.009Z,3.63
2022-09-16T13:31:49.231Z,3.70
2022-09-16T13:34:36.256Z,3.60
2022-09-16T13:37:27.629Z,4.20
2022-09-16T13:40:25.261Z,3.47
2022-09-16T13:43:15.597Z,3.80
2022-09-16T13:46:05.445Z,3.40
2022-09-16T13:48:58.307Z,3.63
2022-09-16T13:51:46.828Z,3.70
2022-09-16T13:55:06.426Z,3.63
2022-09-16T13:58:00.691Z,3.23
2022-09-16T14:01:06.032Z,3.87
2022-09-16T14:04:00.052Z,3.13
2022-09-16T14:07:01.638Z,3.67
2022-09-16T14:09:59.919Z,3.80
2022-09-16T14:12:55.854Z,3.47
2022-09-16T14:15:47.745Z,3.50
2022-09-16T14:18:35.608Z,3.50
2022-09-16T14:21:25.290Z,3.50
2022-09-16T14:24:18.614Z,4.10
2022-09-16T14:27:19.715Z,3.23
2022-09-16T14:30:14.240Z,3.10
2022-09-16T14:33:03.863Z,3.00
2022-09-16T14:35:51.864Z,2.70
2022-09-16T14:38:46.421Z,2.57
2022-09-16T14:41:37.945Z,2.50
2022-09-16T14:44:32.022Z,3.10
2022-09-16T14:47:32.317Z,2.80
2022-09-16T14:50:33.504Z,2.83
2022-09-16T14:53:34.741Z,2.33
2022-09-16T14:56:22.645Z,3.10
2022-09-16T14:59:12.272Z,2.93
2022-09-16T15:02:08.925Z,2.60
2022-09-16T15:05:00.042Z,3.40
2022-09-16T15:08:09.965Z,3.33
2022-09-16T15:10:58.872Z,3.80
2022-09-16T15:13:46.263Z,3.00
2022-09-16T15:16:34.675Z,3.47
2022-09-16T15:19:24.909Z,2.80
2022-09-16T15:22:15.966Z,3.20
2022-09-16T15:25:02.739Z,3.00
2022-09-16T15:27:49.757Z,3.70
2022-09-16T15:30:47.564Z,3.00
2022-09-16T15:33:35.899Z,3.40
2022-09-16T15:36:41.884Z,2.90
2022-09-16T15:39:31.193Z,4.20
2022-09-16T15:42:20.714Z,3.60
2022-09-16T15:45:18.578Z,3.40
2022-09-16T15:48:12.520Z,3.27
2022-09-16T15:51:02.442Z,3.17
2022-09-16T15:53:54.355Z,3.10
2022-09-16T15:56:52.331Z,3.23
2022-09-16T15:59:44.105Z,3.03
2022-09-16T16:02:36.707Z,2.80
2022-09-16T16:05:30.256Z,2.90
2022-09-16T16:08:42.513Z,3.00
2022-09-16T16:11:31.130Z,3.20
2022-09-16T16:14:18.495Z,3.03
2022-09-16T16:17:15.105Z,3.23
2022-09-16T16:20:02.777Z,3.37
2022-09-16T16:22:49.839Z,3.47
2022-09-16T16:25:36.867Z,3.37
2022-09-16T16:28:25.409Z,2.77
2022-09-16T16:31:15.505Z,3.03
2022-09-16T16:34:02.435Z,3.17
2022-09-16T16:36:49.119Z,3.67
2022-09-16T16:39:36.862Z,3.00
2022-09-16T16:42:24.946Z,3.30
2022-09-16T16:45:14.341Z,3.43
2022-09-16T16:48:01.465Z,2.97
2022-09-16T16:50:56.840Z,3.50
2022-09-16T16:53:43.780Z,3.20
2022-09-16T16:56:30.599Z,2.97
2022-09-16T16:59:18.331Z,3.50
2022-09-16T17:02:06.350Z,3.70
2022-09-16T17:04:53.369Z,3.50
2022-09-16T17:07:40.012Z,3.73
2022-09-16T17:10:27.247Z,4.77
2022-09-16T17:13:14.191Z,3.60
2022-09-16T17:16:01.386Z,3.53
2022-09-16T17:18:50.283Z,3.33
2022-09-16T17:21:39.743Z,2.60
2022-09-16T17:24:26.556Z,3.73
2022-09-16T17:27:14.633Z,2.87
2022-09-16T17:30:02.273Z,3.10
2022-09-16T17:32:49.414Z,2.20
2022-09-16T17:35:38.327Z,2.57
2022-09-16T17:38:25.341Z,2.80
2022-09-16T17:41:14.191Z,2.77
2022-09-16T17:44:05.357Z,2.90
2022-09-16T17:46:52.368Z,2.67
2022-09-16T17:49:39.143Z,2.90
2022-09-16T17:52:27.227Z,2.47
2022-09-16T17:55:14.325Z,2.77
2022-09-16T17:58:01.205Z,2.83
2022-09-16T18:00:48.648Z,2.53
2022-09-16T18:03:35.498Z,2.43
2022-09-16T18:06:26.677Z,2.67
2022-09-16T18:09:16.272Z,2.97
2022-09-16T18:12:03.541Z,3.40
2022-09-16T18:14:50.556Z,3.47
2022-09-16T18:17:37.400Z,3.00
2022-09-16T18:20:25.347Z,3.77
2022-09-16T18:23:12.098Z,3.47
2022-09-16T18:26:05.252Z,3.13
2022-09-16T18:29:10.802Z,3.50
2022-09-16T18:31:58.365Z,3.10
2022-09-16T18:34:45.583Z,2.33
2022-09-16T18:37:32.824Z,2.70
2022-09-16T18:40:20.174Z,2.93
2022-09-16T18:43:08.613Z,3.13
2022-09-16T18:45:55.616Z,3.07
2022-09-16T18:48:43.946Z,3.20
2022-09-16T18:51:33.681Z,2.87
2022-09-16T18:54:25.077Z,2.60
2022-09-16T18:57:13.113Z,2.83
2022-09-16T19:00:01.669Z,2.60
2022-09-16T19:02:51.924Z,2.77
2022-09-16T19:05:38.906Z,2.77
2022-09-16T19:08:25.745Z,3.10
2022-09-16T19:11:12.387Z,2.90
2022-09-16T19:13:59.622Z,2.60
2022-09-16T19:16:47.771Z,2.50
2022-09-16T19:19:34.856Z,2.03
2022-09-16T19:22:21.974Z,2.40
2022-09-16T19:25:09.559Z,2.60
2022-09-16T19:27:56.499Z,2.30
2022-09-16T19:30:43.550Z,2.27
2022-09-16T19:33:32.029Z,2.27
2022-09-16T19:36:21.568Z,2.70
2022-09-16T19:39:09.855Z,2.13
2022-09-16T19:41:57.123Z,2.17
2022-09-16T19:44:44.332Z,2.73
2022-09-16T19:47:31.055Z,1.80
2022-09-16T19:50:19.659Z,2.03
2022-09-16T19:53:06.279Z,2.23
2022-09-16T19:55:58.675Z,1.93
2022-09-16T19:58:45.805Z,2.40
2022-09-16T20:01:34.377Z,2.00
2022-09-16T20:04:21.403Z,2.10
2022-09-16T20:07:12.837Z,2.27
2022-09-16T20:09:59.805Z,2.30
2022-09-16T20:12:49.269Z,2.20
2022-09-16T20:15:36.125Z,2.00
2022-09-16T20:18:23.181Z,2.20
2022-09-16T20:21:12.448Z,1.80
2022-09-16T20:24:01.241Z,2.13
2022-09-16T20:26:49.054Z,2.20
2022-09-16T20:29:35.736Z,2.07
2022-09-16T20:32:22.659Z,2.00
2022-09-16T20:35:10.204Z,1.77
2022-09-16T20:37:57.166Z,1.70
2022-09-16T20:40:46.451Z,1.63
2022-09-16T20:43:33.312Z,1.57
2022-09-16T20:46:22.101Z,1.80
2022-09-16T20:49:12.514Z,1.70
2022-09-16T20:51:59.586Z,2.00
2022-09-16T20:54:46.645Z,1.87
2022-09-16T20:57:35.520Z,1.83
2022-09-16T21:00:23.415Z,2.17
2022-09-16T21:03:14.004Z,1.87
2022-09-16T21:06:05.199Z,1.73
2022-09-16T21:08:54.592Z,1.57
2022-09-16T21:11:43.764Z,1.53
2022-09-16T21:14:33.474Z,1.70
2022-09-16T21:17:21.734Z,1.73
2022-09-16T21:20:09.260Z,2.07
2022-09-16T21:22:56.629Z,1.87
2022-09-16T21:25:44.294Z,1.80
2022-09-16T21:28:31.809Z,1.53
2022-09-16T21:31:20.481Z,1.90
2022-09-16T21:34:08.094Z,1.40
2022-09-16T21:36:58.784Z,1.77
2022-09-16T21:39:45.544Z,1.60
2022-09-16T21:42:32.299Z,1.93
2022-09-16T21:45:19.617Z,1.50
2022-09-16T21:48:08.024Z,1.60
2022-09-16T21:51:05.554Z,1.37
2022-09-16T21:53:56.176Z,1.50
2022-09-16T21:56:43.530Z,1.43
2022-09-16T21:59:30.540Z,1.90
2022-09-16T22:02:17.563Z,1.60
2022-09-16T22:05:06.991Z,1.93
2022-09-16T22:07:53.626Z,1.50
2022-09-16T22:10:40.391Z,1.40
2022-09-16T22:13:29.050Z,1.70
2022-09-16T22:16:18.593Z,1.30
2022-09-16T22:19:08.006Z,1.23
2022-09-16T22:21:56.454Z,1.80
2022-09-16T22:24:43.641Z,1.97
2022-09-16T22:27:31.096Z,1.83
2022-09-16T22:30:19.954Z,1.70
2022-09-16T22:33:06.817Z,1.50
2022-09-16T22:35:53.520Z,1.63
2022-09-16T22:38:45.826Z,1.60
2022-09-16T22:41:33.237Z,1.57
2022-09-16T22:44:19.915Z,1.43
2022-09-16T22:47:07.071Z,1.10
2022-09-16T22:49:54.059Z,1.33
2022-09-16T22:52:40.662Z,1.40
2022-09-16T22:55:28.836Z,1.10
2022-09-16T22:58:15.695Z,1.50
2022-09-16T23:01:05.426Z,1.60
2022-09-16T23:03:54.760Z,1.30
2022-09-16T23:06:43.373Z,1.47
2022-09-16T23:09:30.471Z,1.40
2022-09-16T23:12:19.126Z,1.07
2022-09-16T23:15:06.939Z,1.27
2022-09-16T23:17:53.531Z,1.40
2022-09-16T23:20:40.572Z,1.17
2022-09-16T23:23:28.270Z,1.30
2022-09-16T23:26:18.144Z,0.93
2022-09-16T23:29:08.676Z,0.90
2022-09-16T23:31:57.295Z,1.43
2022-09-16T23:34:44.007Z,1.30
2022-09-16T23:37:30.885Z,1.37
2022-09-16T23:40:17.795Z,1.40
2022-09-16T23:43:04.915Z,1.30
2022-09-16T23:45:53.301Z,1.20
2022-09-16T23:48:40.007Z,1.27
2022-09-16T23:51:28.736Z,1.60
2022-09-16T23:54:16.405Z,1.40
2022-09-16T23:57:03.336Z,1.20
2022-09-16T23:59:49.992Z,1.30
